Time;durP1;ratioP1;P1;durP2;ratioP2;P2;SDS_P1;SDS_P2;PMS_P1;PMS_P2;Temp;Humidity;BMP_temperature;BMP_pressure;BME280_temperature;BME280_humidity;BME280_pressure;Samples;Min_cycle;Max_cycle;Signal;HPM_P1;HPM_P2
2022/11/14 00:01:32;;;;;;;31.90;15.57;;;13.00;74.00;;;;;;7381507;19;20010;-92
2022/11/14 00:04:01;;;;;;;30.67;16.52;;;13.00;73.80;;;;;;7382328;19;20082;-92
2022/11/14 00:06:30;;;;;;;28.88;16.48;;;12.90;74.00;;;;;;7378651;19;20118;-92
2022/11/14 00:08:58;;;;;;;38.95;20.42;;;13.00;74.10;;;;;;7408662;19;20388;-92
2022/11/14 00:11:27;;;;;;;39.35;21.20;;;13.00;74.00;;;;;;7408644;19;20082;-91
2022/11/14 00:13:56;;;;;;;40.80;20.98;;;12.90;74.00;;;;;;7414367;19;20027;-92
2022/11/14 00:16:24;;;;;;;40.28;20.23;;;12.90;73.90;;;;;;7420442;19;20011;-92
2022/11/14 00:18:56;;;;;;;39.25;21.10;;;12.90;73.80;;;;;;7421229;19;20013;-92
2022/11/14 00:21:25;;;;;;;42.55;22.35;;;12.90;74.00;;;;;;7437251;19;20013;-92
2022/11/14 00:23:53;;;;;;;42.67;21.98;;;12.90;73.80;;;;;;7436162;19;20010;-92
2022/11/14 00:26:22;;;;;;;44.90;21.15;;;12.90;73.80;;;;;;7419666;19;20011;-92
2022/11/14 00:28:51;;;;;;;38.03;20.50;;;12.90;73.80;;;;;;7407472;19;20022;-91
2022/11/14 00:31:19;;;;;;;44.58;22.30;;;12.90;73.70;;;;;;7408323;19;20027;-91
2022/11/14 00:33:48;;;;;;;48.17;21.85;;;12.90;73.60;;;;;;7403087;19;20014;-90
2022/11/14 00:36:19;;;;;;;46.80;22.33;;;12.90;73.60;;;;;;7404646;19;20015;-90
2022/11/14 00:38:48;;;;;;;50.90;22.77;;;12.80;73.60;;;;;;7405611;19;20030;-90
2022/11/14 00:41:17;;;;;;;50.13;23.20;;;12.80;73.60;;;;;;7403375;19;20039;-90
2022/11/14 00:43:46;;;;;;;46.90;22.63;;;12.80;73.80;;;;;;7407548;19;20010;-90
2022/11/14 00:46:14;;;;;;;49.53;23.30;;;12.80;73.90;;;;;;7404586;19;20553;-89
2022/11/14 00:48:43;;;;;;;46.95;22.77;;;12.80;74.00;;;;;;7403665;19;20355;-90
2022/11/14 00:51:12;;;;;;;49.28;22.45;;;12.80;74.00;;;;;;7408101;19;20384;-91
2022/11/14 00:53:43;;;;;;;45.30;22.55;;;12.80;73.80;;;;;;7405419;19;20038;-90
2022/11/14 00:56:12;;;;;;;51.50;22.65;;;12.80;73.80;;;;;;7409377;19;20031;-90
2022/11/14 00:58:40;;;;;;;49.30;23.85;;;12.80;73.70;;;;;;7409315;19;20024;-90
2022/11/14 01:01:09;;;;;;;57.22;25.17;;;12.80;73.80;;;;;;7414712;19;20035;-90
2022/11/14 01:03:38;;;;;;;55.17;25.15;;;12.80;74.00;;;;;;7411555;19;20018;-90
2022/11/14 01:06:10;;;;;;;49.47;24.38;;;12.80;74.10;;;;;;7409601;19;20031;-91
2022/11/14 01:08:38;;;;;;;53.50;25.42;;;12.80;74.10;;;;;;7415186;19;20021;-90
2022/11/14 01:11:17;;;;;;;56.20;25.85;;;12.80;74.10;;;;;;7409186;19;20022;-90
2022/11/14 01:13:46;;;;;;;60.55;26.05;;;12.80;74.30;;;;;;7412659;19;20027;-90
2022/11/14 01:16:15;;;;;;;51.13;25.50;;;12.80;74.30;;;;;;7411419;19;20022;-91
2022/11/14 01:18:44;;;;;;;49.85;23.55;;;12.80;74.30;;;;;;7418855;19;20027;-90
2022/11/14 01:21:15;;;;;;;57.95;25.83;;;12.80;74.30;;;;;;7417618;19;20024;-92
2022/11/14 01:23:44;;;;;;;56.97;25.58;;;12.80;74.40;;;;;;7410861;19;20354;-91
2022/11/14 01:26:16;;;;;;;52.72;24.92;;;12.90;74.30;;;;;;7413346;19;20018;-91
2022/11/14 01:28:44;;;;;;;59.22;25.15;;;12.90;74.40;;;;;;7414119;19;20472;-92
2022/11/14 01:31:16;;;;;;;54.22;25.95;;;12.90;74.40;;;;;;7414916;19;20022;-91
2022/11/14 01:33:45;;;;;;;54.63;25.48;;;12.90;74.50;;;;;;7417275;19;20011;-91
2022/11/14 01:36:14;;;;;;;77.05;26.35;;;12.90;74.40;;;;;;7419285;19;20437;-92
2022/11/14 01:38:42;;;;;;;62.65;25.35;;;12.90;74.50;;;;;;7417239;19;20029;-92
2022/11/14 01:41:15;;;;;;;66.20;27.20;;;12.90;74.60;;;;;;7417214;19;20437;-91
2022/11/14 01:43:44;;;;;;;62.78;26.73;;;12.90;74.60;;;;;;7417717;19;20326;-91
2022/11/14 01:46:16;;;;;;;54.28;25.08;;;12.90;74.60;;;;;;7422026;19;20013;-91
2022/11/14 01:48:48;;;;;;;52.55;24.17;;;12.90;74.30;;;;;;7431276;19;20070;-91
2022/11/14 01:51:25;;;;;;;47.75;24.33;;;12.90;74.40;;;;;;7415279;19;20027;-91
2022/11/14 01:53:56;;;;;;;49.10;22.38;;;12.80;74.50;;;;;;7413409;19;20032;-92
2022/11/14 01:56:29;;;;;;;;;;;12.80;74.40;;;;;;7423074;19;20020;-92
2022/11/14 01:59:04;;;;;;;50.65;22.30;;;12.90;74.50;;;;;;7423125;19;20245;-92
2022/11/14 02:01:36;;;;;;;56.90;24.58;;;12.90;74.30;;;;;;7421790;19;20011;-92
2022/11/14 02:04:07;;;;;;;53.28;24.15;;;12.90;74.40;;;;;;7418830;19;20031;-92
2022/11/14 02:06:37;;;;;;;80.18;27.90;;;12.90;74.50;;;;;;7416024;19;20450;-91
2022/11/14 02:09:08;;;;;;;70.18;26.45;;;12.90;74.40;;;;;;7409734;19;20457;-91
2022/11/14 02:11:41;;;;;;;;;;;12.90;74.40;;;;;;7410831;19;20361;-91
2022/11/14 02:14:10;;;;;;;58.67;24.42;;;12.90;74.60;;;;;;7408214;19;19923;-91
2022/11/14 02:16:41;;;;;;;56.38;24.08;;;12.90;74.40;;;;;;7415402;19;20027;-93
2022/11/14 02:19:10;;;;;;;46.00;22.93;;;12.80;74.60;;;;;;7416977;19;20014;-93
2022/11/14 02:21:41;;;;;;;43.90;21.38;;;12.80;74.70;;;;;;7417730;19;20026;-93
2022/11/14 02:24:12;;;;;;;42.05;20.58;;;12.80;74.60;;;;;;7420789;19;20014;-92
2022/11/14 02:26:42;;;;;;;41.40;19.95;;;12.80;74.50;;;;;;7417440;19;20015;-91
2022/11/14 02:29:12;;;;;;;41.00;19.17;;;12.80;74.30;;;;;;7417945;19;20022;-90
2022/11/14 02:31:41;;;;;;;34.15;17.10;;;12.80;74.10;;;;;;7410059;19;20014;-89
2022/11/14 02:34:10;;;;;;;37.10;18.20;;;12.80;74.00;;;;;;7405719;19;20010;-89
2022/11/14 02:36:41;;;;;;;107.10;19.15;;;12.80;74.00;;;;;;7412449;19;20011;-89
2022/11/14 02:39:10;;;;;;;35.42;17.08;;;12.70;73.60;;;;;;7427509;19;20007;-90
2022/11/14 02:41:39;;;;;;;43.17;19.63;;;12.60;73.80;;;;;;7412382;19;20010;-89
2022/11/14 02:44:07;;;;;;;42.97;19.90;;;12.60;74.20;;;;;;7407431;19;20022;-89
2022/11/14 02:46:36;;;;;;;55.80;19.60;;;12.60;74.30;;;;;;7410186;19;20027;-89
2022/11/14 02:49:08;;;;;;;51.63;19.08;;;12.60;74.20;;;;;;7409656;19;20017;-89
2022/11/14 02:51:36;;;;;;;40.33;18.55;;;12.60;74.10;;;;;;7409341;19;20022;-89
2022/11/14 02:54:08;;;;;;;41.05;18.10;;;12.60;74.10;;;;;;7410572;19;20015;-89
2022/11/14 02:56:36;;;;;;;;;;;12.60;74.10;;;;;;7410597;19;20024;-89
2022/11/14 02:59:05;;;;;;;36.05;16.65;;;12.70;74.10;;;;;;7404815;19;20226;-89
2022/11/14 03:01:34;;;;;;;37.05;16.52;;;12.70;74.00;;;;;;7407352;19;20018;-89
2022/11/14 03:04:03;;;;;;;40.08;17.30;;;12.70;73.80;;;;;;7402907;19;20031;-88
2022/11/14 03:06:31;;;;;;;39.58;17.77;;;12.70;73.70;;;;;;7401816;19;20017;-89
2022/11/14 03:09:00;;;;;;;34.95;16.63;;;12.70;73.90;;;;;;7407416;19;20018;-90
2022/11/14 03:11:32;;;;;;;34.90;16.83;;;12.70;73.80;;;;;;7425898;19;20011;-89
2022/11/14 03:14:01;;;;;;;34.40;17.05;;;12.60;73.40;;;;;;7425264;19;20007;-89
2022/11/14 03:16:30;;;;;;;46.25;17.73;;;12.60;73.50;;;;;;7410495;19;20022;-89
2022/11/14 03:18:59;;;;;;;89.20;17.73;;;12.60;73.50;;;;;;7402022;19;20035;-90
2022/11/14 03:21:27;;;;;;;64.38;16.58;;;12.50;73.50;;;;;;7401795;19;20078;-89
2022/11/14 03:23:56;;;;;;;32.40;16.13;;;12.50;73.60;;;;;;7400896;19;20079;-90
2022/11/14 03:26:25;;;;;;;33.53;15.35;;;12.50;73.80;;;;;;7401278;19;20078;-90
2022/11/14 03:28:56;;;;;;;141.75;16.92;;;12.50;73.90;;;;;;7402127;19;20023;-90
2022/11/14 03:31:25;;;;;;;;;;;12.40;73.60;;;;;;7399501;19;20022;-89
2022/11/14 03:33:53;;;;;;;74.05;16.25;;;12.40;73.80;;;;;;7401494;19;19922;-90
2022/11/14 03:36:22;;;;;;;35.92;15.70;;;12.40;74.40;;;;;;7399247;19;20032;-90
2022/11/14 03:38:51;;;;;;;41.05;15.07;;;12.40;74.10;;;;;;7399975;19;20019;-89
2022/11/14 03:41:20;;;;;;;68.45;15.77;;;12.30;74.10;;;;;;7401338;19;20018;-89
2022/11/14 03:43:48;;;;;;;45.35;15.63;;;12.30;74.10;;;;;;7397502;19;20015;-89
2022/11/14 03:46:20;;;;;;;57.00;17.13;;;12.20;74.20;;;;;;7397745;19;20078;-89
2022/11/14 03:48:48;;;;;;;;;;;12.20;74.50;;;;;;7398691;19;20015;-89
2022/11/14 03:51:17;;;;;;;41.20;12.70;;;12.30;74.40;;;;;;7400259;19;19995;-89
2022/11/14 03:53:46;;;;;;;24.08;13.15;;;12.20;74.10;;;;;;7400404;19;20796;-89
2022/11/14 03:56:15;;;;;;;122.53;13.57;;;12.20;74.30;;;;;;7401182;19;20050;-89
2022/11/14 03:58:43;;;;;;;27.95;11.80;;;12.20;74.20;;;;;;7407703;19;20034;-89
2022/11/14 04:01:12;;;;;;;65.28;13.15;;;12.10;74.10;;;;;;7403156;19;20022;-90
2022/11/14 04:03:43;;;;;;;30.65;12.18;;;12.10;74.40;;;;;;7398107;19;20091;-91
2022/11/14 04:06:14;;;;;;;32.80;12.80;;;12.10;74.50;;;;;;7397782;19;20023;-90
2022/11/14 04:08:42;;;;;;;115.95;14.73;;;12.10;74.50;;;;;;7401448;19;20014;-90
2022/11/14 04:11:11;;;;;;;28.58;12.55;;;12.10;74.50;;;;;;7408697;19;20026;-90
2022/11/14 04:13:40;;;;;;;37.20;12.65;;;12.10;74.70;;;;;;7404860;19;20062;-90
2022/11/14 04:16:09;;;;;;;28.70;13.15;;;12.20;74.70;;;;;;7407653;19;20087;-91
2022/11/14 04:18:38;;;;;;;51.63;13.75;;;12.10;74.50;;;;;;7406818;19;20010;-90
2022/11/14 04:21:09;;;;;;;29.92;13.00;;;12.10;74.70;;;;;;7410969;19;20056;-91
2022/11/14 04:23:38;;;;;;;;;;;12.10;74.80;;;;;;7416413;19;20018;-91
2022/11/14 04:26:07;;;;;;;31.25;14.20;;;12.20;75.00;;;;;;7417145;19;19930;-91
2022/11/14 04:28:36;;;;;;;37.10;14.13;;;12.20;74.80;;;;;;7419807;19;20009;-91
2022/11/14 04:31:04;;;;;;;23.88;12.85;;;12.20;74.60;;;;;;7419729;19;20022;-91
2022/11/14 04:33:33;;;;;;;25.38;12.82;;;12.20;75.30;;;;;;7427224;19;20014;-91
2022/11/14 04:36:02;;;;;;;32.92;12.50;;;12.20;74.70;;;;;;7432515;19;20003;-90
2022/11/14 04:38:33;;;;;;;31.65;14.07;;;12.20;74.80;;;;;;7423268;19;20312;-91
2022/11/14 04:41:02;;;;;;;31.98;13.57;;;12.30;74.70;;;;;;7413406;19;20018;-90
2022/11/14 04:43:30;;;;;;;25.35;13.93;;;12.30;74.70;;;;;;7409566;19;20035;-91
2022/11/14 04:45:59;;;;;;;25.10;13.00;;;12.20;74.50;;;;;;7406864;19;20028;-90
2022/11/14 04:48:28;;;;;;;25.85;13.25;;;12.30;74.70;;;;;;7406017;19;20449;-90
2022/11/14 04:50:56;;;;;;;23.60;12.45;;;12.20;74.50;;;;;;7407639;19;20466;-90
2022/11/14 04:53:25;;;;;;;23.70;12.43;;;12.30;74.50;;;;;;7410459;19;20018;-91
2022/11/14 04:55:56;;;;;;;23.02;12.05;;;12.30;74.50;;;;;;7403955;19;20016;-90
2022/11/14 04:58:25;;;;;;;24.88;12.32;;;12.30;74.40;;;;;;7405839;19;20022;-90
2022/11/14 05:00:56;;;;;;;22.58;12.75;;;12.40;74.40;;;;;;7405320;19;20027;-90
2022/11/14 05:03:25;;;;;;;40.75;13.32;;;12.40;74.40;;;;;;7407094;19;20010;-89
2022/11/14 05:05:53;;;;;;;30.10;13.95;;;12.40;74.30;;;;;;7402226;19;20031;-89
2022/11/14 05:08:22;;;;;;;100.55;13.50;;;12.40;74.10;;;;;;7404482;19;20090;-90
2022/11/14 05:10:54;;;;;;;33.67;15.05;;;12.40;74.30;;;;;;7405898;19;21298;-79
2022/11/14 05:13:26;;;;;;;29.45;13.95;;;12.40;74.50;;;;;;7413728;19;20022;-81
2022/11/14 05:15:55;;;;;;;54.70;13.00;;;12.30;74.80;;;;;;7406820;19;20022;-79
2022/11/14 05:18:24;;;;;;;25.70;12.23;;;12.30;74.80;;;;;;7404635;19;20019;-79
2022/11/14 05:20:54;;;;;;;61.13;13.25;;;12.30;74.80;;;;;;7403890;19;20015;-80
2022/11/14 05:23:24;;;;;;;26.30;13.13;;;12.30;74.70;;;;;;7407977;19;20006;-80
2022/11/14 05:26:01;;;;;;;23.05;11.85;;;12.40;74.80;;;;;;7411896;19;20022;-80
2022/11/14 05:28:33;;;;;;;28.65;13.10;;;12.30;74.80;;;;;;7405403;19;20039;-79
2022/11/14 05:31:03;;;;;;;27.27;13.40;;;12.40;75.00;;;;;;7408682;19;20015;-79
2022/11/14 05:33:33;;;;;;;29.05;13.38;;;12.40;75.00;;;;;;7408900;19;20022;-79
2022/11/14 05:36:05;;;;;;;27.73;13.18;;;12.40;75.10;;;;;;7400904;19;20449;-80
2022/11/14 05:38:34;;;;;;;35.70;13.98;;;12.50;75.10;;;;;;7410938;19;20026;-80
2022/11/14 05:41:07;;;;;;;32.65;15.45;;;12.50;75.10;;;;;;7404002;19;20425;-80
2022/11/14 05:43:40;;;;;;;51.28;14.63;;;12.50;75.10;;;;;;7409281;19;20102;-80
2022/11/14 05:46:13;;;;;;;33.25;14.43;;;12.50;75.00;;;;;;7424090;19;20007;-81
2022/11/14 05:48:43;;;;;;;37.55;15.13;;;12.50;75.00;;;;;;7431502;19;20010;-81
2022/11/14 05:51:14;;;;;;;35.10;14.35;;;12.50;74.90;;;;;;7420064;19;20011;-80
2022/11/14 05:53:44;;;;;;;28.75;14.15;;;12.50;74.80;;;;;;7411669;19;20018;-81
2022/11/14 05:56:14;;;;;;;63.45;13.60;;;12.50;74.80;;;;;;7407175;19;20050;-81
2022/11/14 05:58:47;;;;;;;39.83;15.15;;;12.50;74.70;;;;;;7409600;19;20042;-81
2022/11/14 06:01:18;;;;;;;33.63;14.18;;;12.50;74.90;;;;;;7405642;19;20091;-81
2022/11/14 06:03:50;;;;;;;29.92;15.02;;;12.50;75.80;;;;;;7409231;19;20019;-80
2022/11/14 06:06:23;;;;;;;31.73;15.23;;;12.50;75.10;;;;;;7411011;19;20067;-81
2022/11/14 06:08:53;;;;;;;36.10;15.15;;;12.50;75.10;;;;;;7406501;19;20631;-81
2022/11/14 06:11:24;;;;;;;40.08;16.02;;;12.50;75.10;;;;;;7405950;19;20029;-81
2022/11/14 06:14:00;;;;;;;37.47;15.38;;;12.50;75.10;;;;;;7404409;19;20018;-81
2022/11/14 06:16:31;;;;;;;29.83;15.43;;;12.50;75.10;;;;;;7404389;19;20030;-80
2022/11/14 06:19:05;;;;;;;26.90;14.20;;;12.50;75.00;;;;;;7411951;19;20038;-81
2022/11/14 06:21:34;;;;;;;42.58;15.23;;;12.50;75.10;;;;;;7412637;19;20066;-80
2022/11/14 06:24:04;;;;;;;51.65;14.25;;;12.50;75.00;;;;;;7405819;19;20019;-80
2022/11/14 06:26:34;;;;;;;37.72;14.93;;;12.50;75.10;;;;;;7405384;19;20050;-80
2022/11/14 06:29:06;;;;;;;34.88;14.98;;;12.50;75.10;;;;;;7412919;19;20014;-81
2022/11/14 06:31:36;;;;;;;29.23;14.65;;;12.50;75.20;;;;;;7411637;19;20025;-82
2022/11/14 06:34:07;;;;;;;44.55;14.05;;;12.50;75.20;;;;;;7413982;19;20433;-82
2022/11/14 06:36:36;;;;;;;;;;;12.40;75.30;;;;;;7419704;19;20013;-82
2022/11/14 06:39:06;;;;;;;30.90;12.55;;;12.50;75.30;;;;;;7408225;19;19922;-80
2022/11/14 06:41:35;;;;;;;25.67;12.52;;;12.40;74.80;;;;;;7410375;19;20018;-81
2022/11/14 06:44:10;;;;;;;35.90;12.95;;;12.40;74.90;;;;;;7416371;19;20022;-81
2022/11/14 06:46:40;;;;;;;66.20;11.90;;;12.40;75.00;;;;;;7414450;19;20035;-80
2022/11/14 06:49:09;;;;;;;30.30;11.55;;;12.30;74.60;;;;;;7417215;19;20042;-80
2022/11/14 06:51:39;;;;;;;32.80;11.98;;;12.20;74.50;;;;;;7414599;19;20014;-81
2022/11/14 06:54:08;;;;;;;26.33;12.23;;;12.10;74.90;;;;;;7414117;19;20026;-79
2022/11/14 06:56:37;;;;;;;35.47;12.57;;;12.10;75.20;;;;;;7410078;19;20019;-79
2022/11/14 06:59:09;;;;;;;29.67;11.63;;;12.10;75.70;;;;;;7407440;19;20114;-79
2022/11/14 07:01:38;;;;;;;65.00;11.75;;;12.10;75.70;;;;;;7403924;19;20018;-79
2022/11/14 07:04:07;;;;;;;21.45;11.02;;;12.10;75.50;;;;;;7401690;19;20446;-79
2022/11/14 07:06:41;;;;;;;22.00;11.25;;;12.10;75.40;;;;;;7401385;19;20026;-80
2022/11/14 07:09:13;;;;;;;25.00;12.13;;;12.10;75.50;;;;;;7401078;19;20109;-79
2022/11/14 07:11:44;;;;;;;;;;;12.20;75.40;;;;;;7400976;19;20026;-79
2022/11/14 07:14:15;;;;;;;38.33;12.15;;;12.30;75.50;;;;;;7401686;19;19923;-79
2022/11/14 07:16:44;;;;;;;19.80;10.43;;;12.30;75.10;;;;;;7406752;19;20014;-79
2022/11/14 07:19:14;;;;;;;25.70;10.60;;;12.20;74.60;;;;;;7410656;19;20046;-80
2022/11/14 07:21:43;;;;;;;33.00;11.50;;;12.30;74.60;;;;;;7404484;19;20393;-79
2022/11/14 07:24:11;;;;;;;24.27;12.85;;;12.20;74.40;;;;;;7402348;19;20065;-80
2022/11/14 07:26:40;;;;;;;23.77;11.07;;;12.30;74.70;;;;;;7397602;19;20430;-80
2022/11/14 07:29:10;;;;;;;26.48;11.57;;;12.30;74.70;;;;;;7400838;19;20014;-80
2022/11/14 07:31:43;;;;;;;19.75;10.68;;;12.30;74.90;;;;;;7398565;19;20033;-79
2022/11/14 07:34:13;;;;;;;24.02;10.55;;;12.30;74.60;;;;;;7396364;19;20513;-80
2022/11/14 07:36:42;;;;;;;29.00;11.15;;;12.40;74.80;;;;;;7397895;19;20018;-80
2022/11/14 07:39:12;;;;;;;24.42;10.57;;;12.40;74.50;;;;;;7398243;19;20023;-80
2022/11/14 07:41:42;;;;;;;24.48;10.18;;;12.40;74.70;;;;;;7402292;19;20021;-79
2022/11/14 07:44:11;;;;;;;24.63;11.00;;;12.40;74.80;;;;;;7403118;19;20053;-79
2022/11/14 07:46:43;;;;;;;27.83;9.85;;;12.40;75.50;;;;;;7409445;19;20022;-79
2022/11/14 07:49:13;;;;;;;21.40;9.82;;;12.40;74.50;;;;;;7405817;19;20429;-80
2022/11/14 07:51:43;;;;;;;16.70;8.82;;;12.40;74.50;;;;;;7407636;19;20010;-80
2022/11/14 07:54:13;;;;;;;16.83;8.70;;;12.40;74.70;;;;;;7414989;19;20463;-80
2022/11/14 07:56:43;;;;;;;13.03;8.37;;;12.40;74.70;;;;;;7410049;19;20022;-80
2022/11/14 07:59:12;;;;;;;22.10;8.48;;;12.50;74.80;;;;;;7403536;19;20019;-80
2022/11/14 08:01:44;;;;;;;14.13;8.23;;;12.50;74.70;;;;;;7404946;19;20505;-79
2022/11/14 08:04:13;;;;;;;15.98;7.78;;;12.50;74.60;;;;;;7408840;19;20014;-83
2022/11/14 08:06:41;;;;;;;15.23;8.25;;;12.50;74.60;;;;;;7415811;19;20458;-84
2022/11/14 08:09:11;;;;;;;15.07;8.10;;;12.50;74.40;;;;;;7416261;19;20033;-85
2022/11/14 08:11:52;;;;;;;16.02;7.97;;;12.60;74.40;;;;;;7412348;19;20619;-81
2022/11/14 08:14:21;;;;;;;15.45;7.65;;;12.60;74.30;;;;;;7409192;19;20010;-83
2022/11/14 08:16:52;;;;;;;15.43;9.00;;;12.60;74.50;;;;;;7411675;19;20042;-81
2022/11/14 08:19:21;;;;;;;15.85;7.78;;;12.60;74.50;;;;;;7408520;19;20031;-82
2022/11/14 08:21:52;;;;;;;15.98;7.78;;;12.60;74.50;;;;;;7405427;19;20022;-81
2022/11/14 08:24:27;;;;;;;17.27;8.88;;;12.60;74.50;;;;;;7377990;19;20018;-82
2022/11/14 08:26:56;;;;;;;16.58;8.75;;;12.60;74.40;;;;;;7379849;19;20014;-81
2022/11/14 08:29:25;;;;;;;14.68;8.45;;;12.70;74.40;;;;;;7383358;19;20038;-81
2022/11/14 08:31:56;;;;;;;21.50;8.10;;;12.70;74.30;;;;;;7404444;19;20026;-83
2022/11/14 08:34:28;;;;;;;18.73;10.40;;;12.70;74.30;;;;;;7385793;19;20018;-81
2022/11/14 08:36:57;;;;;;;23.40;8.73;;;12.80;74.40;;;;;;7382403;19;20021;-81
2022/11/14 08:39:26;;;;;;;37.80;8.25;;;12.80;74.40;;;;;;7385531;19;20102;-81
2022/11/14 08:41:56;;;;;;;17.42;8.23;;;12.80;73.60;;;;;;7386427;19;20093;-81
2022/11/14 08:44:25;;;;;;;21.67;11.32;;;12.70;73.40;;;;;;7382610;19;20018;-81
2022/11/14 08:46:59;;;;;;;28.55;10.15;;;12.70;73.90;;;;;;7407304;19;20022;-81
2022/11/14 08:49:27;;;;;;;27.27;9.30;;;12.60;74.10;;;;;;7390314;19;20359;-81
2022/11/14 08:51:56;;;;;;;20.58;10.00;;;12.60;74.10;;;;;;7390282;19;20019;-82
2022/11/14 08:54:25;;;;;;;16.98;9.60;;;12.60;74.40;;;;;;7391219;19;20019;-82
2022/11/14 08:56:54;;;;;;;23.83;11.40;;;12.60;74.50;;;;;;7385838;19;20014;-88
2022/11/14 08:59:23;;;;;;;19.98;10.48;;;12.70;74.80;;;;;;7385299;19;20097;-81
2022/11/14 09:01:51;;;;;;;23.58;12.27;;;12.70;74.70;;;;;;7408801;19;20039;-89
2022/11/14 09:04:23;;;;;;;22.08;12.02;;;12.80;74.70;;;;;;7384506;19;20006;-84
2022/11/14 09:06:52;;;;;;;24.40;11.35;;;12.90;75.30;;;;;;7391602;19;20019;-84
2022/11/14 09:09:20;;;;;;;18.30;10.68;;;12.90;74.40;;;;;;7384235;19;20074;-83
2022/11/14 09:11:50;;;;;;;21.27;12.10;;;12.90;74.70;;;;;;7382087;19;20018;-83
2022/11/14 09:14:19;;;;;;;23.70;11.35;;;12.90;74.60;;;;;;7386239;19;20042;-82
2022/11/14 09:16:49;;;;;;;19.25;11.02;;;13.00;74.70;;;;;;7416561;19;20027;-87
2022/11/14 09:19:18;;;;;;;17.90;10.20;;;13.00;74.70;;;;;;7410961;19;20018;-87
2022/11/14 09:21:49;;;;;;;22.38;11.27;;;13.00;74.60;;;;;;7408506;19;20035;-90
2022/11/14 09:24:18;;;;;;;20.65;9.88;;;13.00;74.40;;;;;;7397281;19;20031;-91
2022/11/14 09:26:48;;;;;;;20.95;10.30;;;13.00;74.40;;;;;;7391336;19;20019;-87
2022/11/14 09:29:17;;;;;;;18.23;9.65;;;13.10;74.40;;;;;;7414157;19;20319;-90
2022/11/14 09:31:47;;;;;;;21.58;10.98;;;13.10;74.40;;;;;;7396731;19;20029;-87
2022/11/14 09:34:16;;;;;;;16.90;9.57;;;13.10;74.10;;;;;;7391907;19;20018;-91
2022/11/14 09:36:45;;;;;;;18.27;10.02;;;13.10;74.10;;;;;;7390887;19;20029;-88
2022/11/14 09:39:17;;;;;;;22.85;11.18;;;13.10;74.40;;;;;;7385960;19;20014;-84
2022/11/14 09:41:57;;;;;;;21.90;10.07;;;13.10;74.30;;;;;;7379122;19;20023;-90
2022/11/14 09:45:00;;;;;;;20.02;10.68;;;13.10;74.30;;;;;;7384926;19;20030;-87
2022/11/14 09:47:32;;;;;;;20.42;10.98;;;13.20;74.30;;;;;;7389601;19;20019;-88
2022/11/14 09:50:12;;;;;;;24.52;12.52;;;13.20;74.30;;;;;;7412143;19;20052;-90
2022/11/14 09:52:45;;;;;;;25.52;11.45;;;13.20;74.20;;;;;;7384486;19;20014;-87
2022/11/14 09:55:21;;;;;;;24.27;11.90;;;13.20;74.10;;;;;;7384290;19;20027;-93
2022/11/14 09:57:50;;;;;;;28.70;11.90;;;13.20;74.10;;;;;;7389890;19;20018;-89
2022/11/14 10:00:21;;;;;;;26.73;11.32;;;13.30;74.20;;;;;;7394454;19;20036;-90
2022/11/14 10:03:05;;;;;;;20.50;11.25;;;13.20;74.10;;;;;;7389414;19;20011;-88
2022/11/14 10:05:44;;;;;;;23.67;11.02;;;13.20;74.20;;;;;;7382503;19;20026;-87
2022/11/14 10:08:30;;;;;;;21.17;10.73;;;13.30;74.00;;;;;;7403677;19;20026;-89
2022/11/14 10:11:10;;;;;;;21.80;11.52;;;13.30;74.10;;;;;;7386082;19;20018;-92
2022/11/14 10:16:26;;;;;;;20.95;11.55;;;13.40;74.10;;;;;;7391021;19;20026;-87
2022/11/14 10:19:08;;;;;;;21.02;11.93;;;13.40;73.90;;;;;;7387641;19;20018;-90
2022/11/14 10:21:47;;;;;;;24.17;11.52;;;13.40;73.90;;;;;;7396078;19;20035;-88
2022/11/14 10:24:31;;;;;;;25.58;12.13;;;13.40;73.80;;;;;;7389865;19;20445;-89
2022/11/14 10:27:06;;;;;;;29.77;12.23;;;13.50;73.80;;;;;;7387376;19;20058;-89
2022/11/14 10:29:50;;;;;;;25.52;13.40;;;13.40;73.70;;;;;;7394876;19;20018;-91
2022/11/14 10:32:30;;;;;;;28.48;13.65;;;13.40;73.50;;;;;;7386962;19;20014;-88
2022/11/14 10:35:06;;;;;;;32.25;14.27;;;13.50;73.70;;;;;;7407733;19;20022;-93
2022/11/14 10:37:39;;;;;;;27.85;13.73;;;13.50;73.60;;;;;;7383812;19;20055;-90
2022/11/14 10:40:19;;;;;;;28.70;14.35;;;13.50;73.70;;;;;;7382164;19;20343;-90
2022/11/14 10:42:56;;;;;;;36.92;14.85;;;13.50;73.80;;;;;;7384333;19;20098;-89
2022/11/14 10:45:30;;;;;;;28.52;14.13;;;13.50;73.80;;;;;;7391919;19;20010;-91
2022/11/14 10:48:03;;;;;;;28.92;13.80;;;13.60;73.80;;;;;;7385869;19;20039;-90
2022/11/14 10:50:41;;;;;;;31.80;14.73;;;13.70;73.90;;;;;;7391786;19;20015;-92
2022/11/14 10:53:22;;;;;;;32.53;15.50;;;13.70;73.90;;;;;;7406292;19;20036;-93
2022/11/14 10:55:53;;;;;;;29.83;14.88;;;13.70;73.90;;;;;;7389634;19;20025;-89
2022/11/14 10:58:25;;;;;;;30.52;15.65;;;13.80;73.60;;;;;;7393120;19;20014;-91
2022/11/14 11:00:54;;;;;;;29.55;15.75;;;13.80;73.50;;;;;;7391664;19;20043;-91
2022/11/14 11:03:41;;;;;;;32.83;16.25;;;13.80;73.60;;;;;;7387997;19;20019;-88
2022/11/14 11:06:26;;;;;;;31.83;16.25;;;13.80;73.50;;;;;;7393295;19;20069;-95
2022/11/14 11:11:33;;;;;;;38.42;18.95;;;13.90;73.80;;;;;;7386055;19;20018;-89
2022/11/14 11:14:05;;;;;;;54.05;25.23;;;14.00;73.90;;;;;;7412631;19;20600;-89
2022/11/14 11:16:34;;;;;;;;;;;14.00;73.70;;;;;;7396642;19;20014;-92
2022/11/14 11:19:24;;;;;;;36.17;16.75;;;14.10;73.50;;;;;;7386451;19;19971;-87
2022/11/14 11:21:54;;;;;;;37.10;17.02;;;14.00;73.10;;;;;;7392845;19;20015;-90
2022/11/14 11:24:33;;;;;;;40.97;17.42;;;14.10;73.20;;;;;;7392664;19;20014;-88
2022/11/14 11:27:17;;;;;;;37.28;17.48;;;14.00;73.40;;;;;;7397118;19;20015;-89
2022/11/14 11:29:48;;;;;;;32.35;16.92;;;14.00;73.50;;;;;;7401461;19;20032;-88
2022/11/14 11:32:28;;;;;;;42.17;19.20;;;14.10;73.60;;;;;;7424872;19;20017;-83
2022/11/14 11:34:58;;;;;;;29.08;15.85;;;14.00;73.90;;;;;;7426141;19;20011;-87
2022/11/14 11:37:32;;;;;;;30.52;15.45;;;14.10;74.20;;;;;;7401997;19;20027;-88
2022/11/14 11:40:06;;;;;;;28.60;14.85;;;14.10;74.50;;;;;;7357092;19;20015;-89
2022/11/14 11:42:41;;;;;;;28.08;15.27;;;14.10;74.70;;;;;;7394217;19;20011;-93
2022/11/14 11:45:17;;;;;;;25.90;15.02;;;14.10;74.80;;;;;;7395788;19;20010;-89
2022/11/14 11:47:52;;;;;;;30.00;14.90;;;14.10;74.90;;;;;;7387315;19;20042;-89
2022/11/14 11:50:23;;;;;;;27.05;15.68;;;14.20;75.20;;;;;;7383345;19;20018;-87
2022/11/14 11:53:01;;;;;;;29.15;15.73;;;14.10;75.10;;;;;;7405083;19;20051;-86
2022/11/14 11:55:34;;;;;;;31.02;15.60;;;14.20;75.30;;;;;;7388096;19;20007;-89
2022/11/14 11:58:12;;;;;;;24.65;14.55;;;14.20;75.40;;;;;;7385760;19;20051;-90
2022/11/14 12:00:43;;;;;;;27.25;15.02;;;14.20;75.50;;;;;;7387570;19;20015;-92
2022/11/14 12:03:16;;;;;;;30.88;16.10;;;14.30;75.60;;;;;;7387939;19;20023;-92
2022/11/14 12:05:52;;;;;;;34.80;17.35;;;14.30;75.60;;;;;;7385817;19;20014;-90
2022/11/14 12:08:28;;;;;;;30.90;16.75;;;14.30;75.80;;;;;;7382361;19;20022;-85
2022/11/14 12:10:58;;;;;;;33.03;16.98;;;14.40;76.00;;;;;;7398335;19;20023;-84
2022/11/14 12:13:52;;;;;;;33.60;16.90;;;14.50;75.90;;;;;;7385725;19;20121;-87
2022/11/14 12:16:39;;;;;;;31.55;17.33;;;14.40;75.70;;;;;;7382512;19;20015;-90
2022/11/14 12:19:38;;;;;;;35.20;18.40;;;14.50;75.60;;;;;;7389809;19;20014;-92
2022/11/14 12:25:01;;;;;;;32.33;17.35;;;14.60;75.30;;;;;;7324438;19;20019;-88
2022/11/14 12:27:48;;;;;;;34.70;16.45;;;14.60;75.40;;;;;;7382923;19;20029;-87
2022/11/14 12:30:20;;;;;;;36.13;17.75;;;14.70;75.40;;;;;;7389836;19;20129;-86
2022/11/14 12:33:33;;;;;;;27.85;15.88;;;14.80;75.20;;;;;;7401292;19;20010;-91
2022/11/14 12:41:57;;;;;;;25.05;15.00;;;15.00;75.30;;;;;;7371372;19;20011;-89
2022/11/14 12:47:20;;;;;;;25.92;14.68;;;15.10;75.10;;;;;;7414767;19;20043;-91
2022/11/14 12:50:28;;;;;;;23.17;13.82;;;15.10;75.40;;;;;;7402596;19;20058;-92
2022/11/14 12:53:03;;;;;;;22.48;13.85;;;15.10;75.40;;;;;;7401359;19;20018;-86
2022/11/14 12:56:09;;;;;;;24.60;13.35;;;15.20;75.40;;;;;;7396720;19;20022;-83
2022/11/14 12:58:53;;;;;;;21.17;12.98;;;15.20;75.80;;;;;;7408535;19;20018;-84
2022/11/14 13:01:39;;;;;;;24.95;12.35;;;15.30;76.10;;;;;;7398616;19;20010;-89
2022/11/14 13:04:26;;;;;;;19.30;11.85;;;15.50;76.40;;;;;;7399497;19;20018;-88
2022/11/14 13:07:16;;;;;;;24.25;11.85;;;15.60;76.00;;;;;;7376988;19;20027;-85
2022/11/14 13:10:02;;;;;;;16.52;11.60;;;15.60;76.00;;;;;;7409092;19;20022;-84
2022/11/14 13:26:58;;;;;;;16.08;10.93;;;15.70;77.50;;;;;;7408759;19;20019;-88